createdAt,value
2017-11-30T00:01:02.741Z,30.50
2017-11-30T00:03:30.273Z,32.60
2017-11-30T00:05:57.876Z,29.57
2017-11-30T00:08:25.423Z,30.40
2017-11-30T00:10:52.946Z,30.03
2017-11-30T00:13:20.630Z,31.97
2017-11-30T00:15:48.178Z,31.63
2017-11-30T00:18:15.720Z,31.90
2017-11-30T00:20:43.315Z,31.60
2017-11-30T00:23:10.842Z,33.03
2017-11-30T00:25:38.407Z,33.00
2017-11-30T00:28:05.950Z,31.60
2017-11-30T00:30:33.532Z,30.30
2017-11-30T00:33:01.081Z,29.80
2017-11-30T00:35:28.633Z,34.30
2017-11-30T00:37:56.199Z,31.50
2017-11-30T00:40:23.736Z,30.23
2017-11-30T00:43:04.218Z,30.63
2017-11-30T00:45:31.784Z,31.30
2017-11-30T00:47:59.332Z,28.40
2017-11-30T00:50:26.994Z,28.53
2017-11-30T00:52:54.556Z,30.67
2017-11-30T00:55:22.112Z,34.27
2017-11-30T00:57:49.715Z,31.77
2017-11-30T01:00:17.423Z,31.33
2017-11-30T01:02:44.967Z,33.47
2017-11-30T01:05:12.533Z,33.00
2017-11-30T01:07:40.100Z,33.27
2017-11-30T01:10:07.648Z,29.30
2017-11-30T01:12:35.165Z,30.77
2017-11-30T01:15:02.737Z,30.80
2017-11-30T01:17:30.765Z,33.00
2017-11-30T01:19:58.301Z,37.10
2017-11-30T01:22:25.867Z,35.70
2017-11-30T01:24:53.540Z,35.10
2017-11-30T01:27:21.091Z,33.90
2017-11-30T01:29:48.639Z,39.73
2017-11-30T01:32:16.235Z,38.33
2017-11-30T01:34:43.767Z,34.57
2017-11-30T01:37:11.300Z,35.47
2017-11-30T01:39:38.867Z,35.77
2017-11-30T01:42:06.413Z,40.03
2017-11-30T01:44:33.972Z,39.93
2017-11-30T01:47:01.600Z,47.40
2017-11-30T01:49:29.135Z,43.33
2017-11-30T01:51:56.663Z,43.00
2017-11-30T01:54:24.313Z,38.37
2017-11-30T01:56:51.886Z,40.00
2017-11-30T01:59:19.433Z,42.70
2017-11-30T02:01:47.113Z,37.97
2017-11-30T02:04:14.647Z,37.80
2017-11-30T02:06:42.174Z,40.00
2017-11-30T02:09:09.768Z,39.50
2017-11-30T02:11:37.309Z,35.10
2017-11-30T02:14:04.829Z,33.93
2017-11-30T02:16:32.505Z,32.37
2017-11-30T02:19:00.046Z,32.43
2017-11-30T02:21:27.604Z,32.37
2017-11-30T02:23:55.260Z,27.47
2017-11-30T02:26:22.918Z,23.57
2017-11-30T02:28:50.496Z,22.33
2017-11-30T02:31:18.184Z,20.83
2017-11-30T02:33:45.759Z,24.90
2017-11-30T02:36:13.315Z,22.13
2017-11-30T02:38:42.785Z,24.60
2017-11-30T02:41:10.435Z,22.03
2017-11-30T02:43:37.983Z,24.17
2017-11-30T02:46:05.571Z,23.70
2017-11-30T02:48:33.146Z,21.70
2017-11-30T02:51:00.760Z,26.67
2017-11-30T02:53:28.455Z,23.70
2017-11-30T02:55:56.029Z,23.40
2017-11-30T02:58:23.640Z,22.77
2017-11-30T03:00:51.362Z,25.63
2017-11-30T03:03:18.927Z,24.13
2017-11-30T03:05:46.488Z,26.53
2017-11-30T03:08:14.094Z,28.67
2017-11-30T03:10:41.685Z,25.87
2017-11-30T03:13:09.227Z,24.03
2017-11-30T03:15:36.823Z,23.63
2017-11-30T03:18:04.361Z,25.60
2017-11-30T03:20:33.909Z,24.70
2017-11-30T03:23:01.479Z,26.00
2017-11-30T03:25:29.164Z,25.57
2017-11-30T03:27:56.706Z,24.60
2017-11-30T03:30:24.258Z,25.90
2017-11-30T03:32:51.843Z,31.00
2017-11-30T03:35:19.541Z,27.67
2017-11-30T03:37:48.035Z,25.83
2017-11-30T03:40:15.618Z,25.97
2017-11-30T03:42:43.194Z,23.00
2017-11-30T03:45:10.904Z,21.93
2017-11-30T03:47:38.443Z,24.63
2017-11-30T03:50:05.987Z,23.40
2017-11-30T03:52:33.555Z,31.93
2017-11-30T03:55:01.186Z,21.90
2017-11-30T03:57:28.752Z,28.33
2017-11-30T03:59:57.997Z,28.77
2017-11-30T04:02:25.673Z,26.20
2017-11-30T04:04:53.235Z,30.67
2017-11-30T04:07:20.778Z,26.43
2017-11-30T04:09:49.296Z,34.47
2017-11-30T04:12:16.947Z,25.67
2017-11-30T04:14:44.487Z,23.20
2017-11-30T04:17:12.151Z,25.20
2017-11-30T04:19:39.687Z,23.87
2017-11-30T04:22:07.231Z,27.40
2017-11-30T04:24:34.786Z,23.50
2017-11-30T04:27:02.347Z,31.53
2017-11-30T04:29:29.915Z,30.20
2017-11-30T04:31:57.504Z,26.13
2017-11-30T04:34:25.048Z,26.40
2017-11-30T04:36:52.588Z,22.50
2017-11-30T04:39:20.152Z,31.40
2017-11-30T04:41:47.713Z,20.00
2017-11-30T04:44:15.258Z,30.60
2017-11-30T04:46:42.854Z,27.40
2017-11-30T04:49:10.395Z,28.03
2017-11-30T04:51:38.877Z,26.73
2017-11-30T04:54:06.486Z,18.53
2017-11-30T04:56:34.017Z,15.30
2017-11-30T04:59:01.583Z,18.87
2017-11-30T05:01:29.167Z,16.03
2017-11-30T05:03:56.719Z,16.47
2017-11-30T05:06:24.264Z,17.50
2017-11-30T05:08:51.844Z,15.47
2017-11-30T05:11:19.400Z,18.43
2017-11-30T05:13:46.993Z,19.00
2017-11-30T05:16:14.540Z,15.67
2017-11-30T05:18:42.066Z,15.80
2017-11-30T05:21:09.624Z,14.93
2017-11-30T05:23:37.299Z,16.40
2017-11-30T05:26:04.826Z,16.23
2017-11-30T05:28:32.405Z,20.00
2017-11-30T05:30:59.983Z,16.20
2017-11-30T05:33:27.516Z,20.30
2017-11-30T05:35:55.047Z,21.67
2017-11-30T05:38:22.605Z,19.13
2017-11-30T05:40:50.204Z,18.17
2017-11-30T05:43:17.782Z,19.03
2017-11-30T05:45:45.322Z,19.30
2017-11-30T05:48:12.862Z,22.60
2017-11-30T05:50:40.451Z,25.37
2017-11-30T05:53:07.991Z,21.17
2017-11-30T05:55:35.524Z,17.83
2017-11-30T05:58:03.235Z,19.23
2017-11-30T06:00:30.792Z,18.77
2017-11-30T06:02:58.334Z,21.33
2017-11-30T06:05:26.063Z,18.90
2017-11-30T06:07:53.589Z,19.03
2017-11-30T06:10:21.115Z,21.30
2017-11-30T06:12:48.697Z,22.60
2017-11-30T06:15:16.423Z,20.67
2017-11-30T06:17:43.952Z,22.33
2017-11-30T06:20:11.491Z,23.70
2017-11-30T06:22:39.231Z,20.50
2017-11-30T06:25:06.790Z,18.17
2017-11-30T06:27:34.343Z,16.40
2017-11-30T06:30:01.867Z,17.63
2017-11-30T06:32:29.539Z,16.27
2017-11-30T06:34:57.066Z,15.80
2017-11-30T06:37:24.595Z,16.67
2017-11-30T06:39:52.152Z,16.73
2017-11-30T06:42:19.724Z,17.30
2017-11-30T06:44:47.394Z,18.20
2017-11-30T06:47:14.919Z,18.20
2017-11-30T06:49:42.447Z,17.53
2017-11-30T06:52:10.026Z,18.37
2017-11-30T06:54:37.547Z,18.93
2017-11-30T06:57:05.082Z,17.53
2017-11-30T06:59:32.835Z,19.87
2017-11-30T07:02:00.360Z,16.87
2017-11-30T07:04:27.886Z,18.93
2017-11-30T07:06:55.430Z,17.50
2017-11-30T07:09:22.979Z,19.20
2017-11-30T07:11:50.515Z,18.70
2017-11-30T07:14:18.101Z,20.93
2017-11-30T07:16:45.623Z,19.37
2017-11-30T07:19:13.141Z,19.17
2017-11-30T07:21:40.679Z,19.23
2017-11-30T07:24:08.194Z,19.70
2017-11-30T07:26:35.756Z,18.90
2017-11-30T07:29:03.274Z,16.40
2017-11-30T07:31:30.794Z,19.43
2017-11-30T07:33:58.557Z,19.50
2017-11-30T07:36:26.075Z,16.63
2017-11-30T07:38:53.594Z,19.60
2017-11-30T07:41:21.144Z,17.20
2017-11-30T07:43:48.665Z,16.63
2017-11-30T07:46:16.422Z,19.47
2017-11-30T07:48:43.934Z,18.43
2017-11-30T07:51:11.454Z,19.50
2017-11-30T07:53:39.030Z,16.93
2017-11-30T07:56:06.550Z,16.50
2017-11-30T07:58:34.078Z,17.67
2017-11-30T08:01:01.768Z,14.70
2017-11-30T08:03:29.286Z,15.60
2017-11-30T08:05:56.796Z,16.33
2017-11-30T08:08:24.368Z,16.80
2017-11-30T08:10:51.881Z,15.50
2017-11-30T08:13:19.407Z,14.60
2017-11-30T08:15:46.955Z,17.00
2017-11-30T08:18:14.559Z,13.40
2017-11-30T08:20:42.083Z,14.67
2017-11-30T08:23:09.593Z,15.43
2017-11-30T08:25:37.168Z,14.30
2017-11-30T08:28:04.727Z,13.87
2017-11-30T08:30:32.294Z,13.70
2017-11-30T08:32:59.814Z,13.37
2017-11-30T08:35:27.350Z,12.20
2017-11-30T08:37:54.952Z,15.60
2017-11-30T08:40:22.487Z,13.93
2017-11-30T08:42:50.039Z,13.87
2017-11-30T08:45:17.693Z,12.83
2017-11-30T08:47:45.317Z,11.27
2017-11-30T08:50:12.836Z,13.27
2017-11-30T08:52:40.395Z,11.80
2017-11-30T08:55:07.972Z,13.70
2017-11-30T08:57:35.627Z,11.73
2017-11-30T09:00:03.174Z,13.07
2017-11-30T09:02:30.693Z,11.30
2017-11-30T09:04:58.299Z,13.03
2017-11-30T09:07:25.810Z,10.40
2017-11-30T09:09:53.330Z,11.80
2017-11-30T09:12:20.902Z,11.67
2017-11-30T09:14:48.428Z,11.10
2017-11-30T09:17:15.950Z,11.77
2017-11-30T09:19:43.603Z,11.20
2017-11-30T09:22:11.159Z,9.90
2017-11-30T09:24:38.678Z,11.13
2017-11-30T09:27:06.251Z,9.40
2017-11-30T09:29:33.771Z,10.23
2017-11-30T09:32:01.307Z,10.37
2017-11-30T09:34:29.017Z,9.27
2017-11-30T09:36:56.583Z,9.93
2017-11-30T09:39:24.119Z,10.00
2017-11-30T09:41:51.695Z,9.40
2017-11-30T09:44:19.231Z,8.33
2017-11-30T09:46:46.770Z,9.30
2017-11-30T09:49:14.454Z,8.87
2017-11-30T09:51:42.915Z,10.07
2017-11-30T09:54:10.467Z,10.77
2017-11-30T09:56:38.067Z,11.83
2017-11-30T09:59:05.620Z,11.40
2017-11-30T10:01:33.154Z,9.87
2017-11-30T10:04:00.835Z,9.33
2017-11-30T10:06:28.370Z,9.30
2017-11-30T10:08:55.952Z,8.80
2017-11-30T10:11:23.535Z,7.87
2017-11-30T10:13:51.061Z,8.70
2017-11-30T10:16:18.586Z,8.50
2017-11-30T10:18:46.154Z,7.77
2017-11-30T10:21:13.671Z,8.23
2017-11-30T10:23:41.183Z,8.93
2017-11-30T10:26:08.739Z,8.00
2017-11-30T10:28:36.288Z,7.43
2017-11-30T10:31:03.802Z,7.77
2017-11-30T10:33:31.359Z,6.77
2017-11-30T10:35:58.874Z,7.50
2017-11-30T10:38:26.393Z,6.93
2017-11-30T10:40:53.934Z,6.93
2017-11-30T10:43:21.451Z,8.00
2017-11-30T10:45:49.250Z,6.87
2017-11-30T10:48:16.761Z,6.70
2017-11-30T10:50:44.270Z,7.90
2017-11-30T10:53:11.923Z,7.50
2017-11-30T10:55:39.443Z,7.20
2017-11-30T10:58:06.973Z,8.20
2017-11-30T11:00:34.571Z,7.23
2017-11-30T11:03:02.078Z,6.83
2017-11-30T11:05:29.604Z,7.50
2017-11-30T11:07:57.163Z,6.40
2017-11-30T11:10:24.668Z,6.93
2017-11-30T11:12:52.245Z,7.93
2017-11-30T11:15:19.758Z,7.40
2017-11-30T11:17:47.277Z,6.40
2017-11-30T11:20:14.819Z,6.67
2017-11-30T11:22:42.340Z,7.60
2017-11-30T11:25:09.913Z,7.07
2017-11-30T11:27:37.432Z,6.20
2017-11-30T11:30:04.953Z,6.60
2017-11-30T11:32:32.639Z,6.70
2017-11-30T11:35:00.160Z,7.27
2017-11-30T11:37:27.689Z,6.23
2017-11-30T11:39:55.254Z,7.60
2017-11-30T11:42:22.762Z,6.40
2017-11-30T11:44:50.282Z,5.93
2017-11-30T11:47:17.966Z,7.10
2017-11-30T11:49:45.474Z,7.33
2017-11-30T11:52:12.999Z,7.17
2017-11-30T11:54:40.609Z,7.63
2017-11-30T11:57:08.161Z,5.97
2017-11-30T11:59:35.683Z,6.10
2017-11-30T12:02:03.246Z,6.83
2017-11-30T12:04:30.758Z,5.53
2017-11-30T12:06:58.302Z,7.30
2017-11-30T12:09:25.825Z,6.83
2017-11-30T12:11:53.360Z,6.83
2017-11-30T12:14:20.886Z,5.87
2017-11-30T12:16:48.428Z,6.27
2017-11-30T12:19:15.938Z,5.20
2017-11-30T12:21:43.492Z,5.60
2017-11-30T12:24:11.073Z,5.80
2017-11-30T12:26:38.590Z,5.70
2017-11-30T12:29:06.097Z,5.13
2017-11-30T12:31:33.653Z,5.50
2017-11-30T12:34:01.163Z,4.70
2017-11-30T12:36:28.672Z,5.43
2017-11-30T12:38:56.370Z,4.83
2017-11-30T12:41:23.886Z,5.13
2017-11-30T12:43:51.397Z,4.97
2017-11-30T12:46:18.959Z,5.10
2017-11-30T12:48:46.466Z,5.50
2017-11-30T12:51:13.969Z,5.13
2017-11-30T12:53:41.515Z,4.27
2017-11-30T12:56:09.055Z,4.80
2017-11-30T12:58:36.606Z,4.90
2017-11-30T13:01:04.121Z,5.70
2017-11-30T13:03:31.657Z,6.27
2017-11-30T13:05:59.234Z,5.17
2017-11-30T13:08:26.764Z,5.43
2017-11-30T13:10:54.332Z,5.63
2017-11-30T13:13:21.863Z,5.03
2017-11-30T13:15:49.413Z,5.37
2017-11-30T13:18:16.928Z,5.63
2017-11-30T13:20:44.599Z,5.37
2017-11-30T13:23:12.120Z,6.07
2017-11-30T13:25:39.656Z,5.50
2017-11-30T13:28:07.348Z,6.40
2017-11-30T13:30:34.858Z,5.47
2017-11-30T13:33:02.382Z,6.97
2017-11-30T13:35:29.964Z,5.77
2017-11-30T13:37:57.477Z,7.47
2017-11-30T13:40:25.850Z,6.40
2017-11-30T13:42:53.416Z,6.00
2017-11-30T13:45:20.934Z,5.90
2017-11-30T13:47:48.441Z,6.47
2017-11-30T13:50:16.040Z,6.40
2017-11-30T13:52:43.781Z,6.27
2017-11-30T13:55:11.292Z,5.77
2017-11-30T13:57:38.806Z,6.10
2017-11-30T14:00:06.339Z,6.53
2017-11-30T14:02:33.901Z,5.80
2017-11-30T14:05:01.404Z,6.57
2017-11-30T14:07:28.925Z,6.43
2017-11-30T14:09:56.609Z,6.53
2017-11-30T14:12:24.127Z,7.50
2017-11-30T14:14:51.632Z,6.27
2017-11-30T14:17:19.161Z,6.90
2017-11-30T14:19:46.667Z,7.10
2017-11-30T14:22:14.328Z,7.00
2017-11-30T14:24:41.839Z,6.20
2017-11-30T14:27:09.337Z,6.57
2017-11-30T14:29:37.056Z,6.40
2017-11-30T14:32:04.561Z,6.10
2017-11-30T14:34:32.091Z,5.80
2017-11-30T14:36:59.776Z,6.17
2017-11-30T14:39:27.288Z,6.63
2017-11-30T14:41:54.804Z,7.07
2017-11-30T14:44:22.357Z,6.00
2017-11-30T14:46:49.878Z,5.80
2017-11-30T14:49:17.441Z,6.10
2017-11-30T14:51:44.953Z,6.17
2017-11-30T14:54:12.517Z,6.50
2017-11-30T14:56:40.026Z,6.67
2017-11-30T14:59:07.540Z,6.27
2017-11-30T15:01:35.121Z,6.57
2017-11-30T15:04:02.628Z,6.33
2017-11-30T15:06:30.145Z,6.53
2017-11-30T15:08:57.825Z,6.17
2017-11-30T15:11:25.720Z,6.20
2017-11-30T15:13:53.242Z,6.20
2017-11-30T15:16:20.801Z,6.27
2017-11-30T15:18:48.360Z,6.73
2017-11-30T15:21:15.864Z,5.50
2017-11-30T15:23:43.372Z,6.53
2017-11-30T15:26:10.941Z,7.33
2017-11-30T15:28:38.448Z,6.47
2017-11-30T15:31:05.961Z,7.60
2017-11-30T15:33:33.497Z,6.67
2017-11-30T15:36:01.143Z,8.33
2017-11-30T15:38:28.669Z,7.40
2017-11-30T15:40:56.175Z,8.70
2017-11-30T15:43:23.709Z,7.57
2017-11-30T15:45:51.412Z,8.93
2017-11-30T15:48:18.921Z,5.40
2017-11-30T15:50:46.425Z,5.50
2017-11-30T15:53:13.961Z,6.60
2017-11-30T15:55:41.470Z,7.33
2017-11-30T15:58:09.186Z,7.10
2017-11-30T16:00:36.693Z,5.60
2017-11-30T16:03:04.200Z,9.40
2017-11-30T16:05:31.740Z,10.60
2017-11-30T16:07:59.249Z,10.10
2017-11-30T16:10:26.789Z,8.37
2017-11-30T16:12:54.308Z,8.40
2017-11-30T16:15:21.959Z,8.07
2017-11-30T16:17:49.761Z,9.27
2017-11-30T16:20:17.264Z,7.97
2017-11-30T16:22:44.908Z,6.13
2017-11-30T16:25:12.412Z,6.70
2017-11-30T16:27:39.928Z,6.07
2017-11-30T16:30:07.539Z,7.57
2017-11-30T16:32:35.074Z,7.30
2017-11-30T16:35:02.604Z,5.53
2017-11-30T16:37:30.156Z,7.60
2017-11-30T16:39:57.684Z,8.43
2017-11-30T16:42:25.236Z,12.47
2017-11-30T16:44:52.749Z,17.40
2017-11-30T16:47:20.289Z,16.83
2017-11-30T16:49:47.965Z,14.70
2017-11-30T16:52:15.499Z,12.10
2017-11-30T16:54:43.050Z,12.30
2017-11-30T16:57:10.598Z,13.03
2017-11-30T16:59:38.146Z,13.07
2017-11-30T17:02:06.112Z,14.30
2017-11-30T17:04:33.639Z,17.07
2017-11-30T17:07:01.196Z,15.40
2017-11-30T17:09:28.704Z,12.10
2017-11-30T17:11:56.213Z,10.40
2017-11-30T17:14:23.759Z,8.83
2017-11-30T17:16:51.345Z,10.60
2017-11-30T17:19:18.872Z,11.40
2017-11-30T17:21:46.389Z,10.97
2017-11-30T17:24:13.934Z,12.90
2017-11-30T17:26:41.474Z,11.40
2017-11-30T17:29:09.122Z,11.97
2017-11-30T17:31:36.638Z,12.23
2017-11-30T17:34:04.158Z,12.10
2017-11-30T17:36:31.901Z,13.40
2017-11-30T17:38:59.436Z,11.33
2017-11-30T17:41:26.958Z,13.30
2017-11-30T17:43:54.617Z,12.60
2017-11-30T17:46:23.064Z,11.30
2017-11-30T17:48:57.091Z,11.47
2017-11-30T17:51:24.641Z,11.53
2017-11-30T17:53:52.157Z,11.50
2017-11-30T17:56:19.861Z,13.20
2017-11-30T17:58:47.385Z,12.97
2017-11-30T18:01:14.902Z,13.90
2017-11-30T18:03:42.444Z,13.57
2017-11-30T18:06:09.961Z,14.47
2017-11-30T18:08:37.676Z,14.17
2017-11-30T18:11:05.200Z,18.03
2017-11-30T18:13:32.755Z,16.80
2017-11-30T18:16:00.376Z,15.80
2017-11-30T18:18:27.889Z,15.27
2017-11-30T18:20:55.423Z,15.13
2017-11-30T18:23:22.932Z,15.33
2017-11-30T18:25:50.511Z,15.93
2017-11-30T18:28:18.029Z,16.00
2017-11-30T18:30:45.553Z,16.83
2017-11-30T18:33:13.125Z,17.23
2017-11-30T18:35:40.665Z,15.67
2017-11-30T18:38:08.192Z,18.83
2017-11-30T18:40:35.776Z,18.13
2017-11-30T18:43:03.305Z,20.80
2017-11-30T18:45:30.817Z,21.77
2017-11-30T18:47:58.380Z,21.67
2017-11-30T18:50:25.902Z,21.50
2017-11-30T18:52:53.422Z,23.10
2017-11-30T18:55:21.198Z,22.93
2017-11-30T18:57:48.715Z,24.67
2017-11-30T19:00:16.230Z,22.47
2017-11-30T19:02:43.802Z,18.87
2017-11-30T19:05:11.316Z,19.50
2017-11-30T19:07:38.843Z,19.20
2017-11-30T19:10:06.527Z,14.60
2017-11-30T19:12:34.044Z,16.07
2017-11-30T19:15:01.559Z,15.23
2017-11-30T19:17:29.109Z,15.23
2017-11-30T19:19:56.691Z,14.50
2017-11-30T19:22:24.205Z,15.40
2017-11-30T19:24:51.739Z,15.10
2017-11-30T19:27:19.286Z,18.03
2017-11-30T19:29:46.805Z,17.83
2017-11-30T19:32:14.581Z,19.33
2017-11-30T19:34:42.102Z,18.90
2017-11-30T19:37:09.608Z,18.00
2017-11-30T19:39:37.204Z,18.80
2017-11-30T19:42:04.776Z,17.27
2017-11-30T19:44:32.340Z,31.20
2017-11-30T19:46:59.895Z,18.90
2017-11-30T19:49:27.455Z,17.63
2017-11-30T19:51:55.003Z,17.97
2017-11-30T19:54:22.580Z,19.30
2017-11-30T19:56:50.210Z,18.20
2017-11-30T19:59:17.741Z,21.13
2017-11-30T20:01:45.397Z,19.23
2017-11-30T20:04:12.911Z,17.53
2017-11-30T20:06:40.428Z,18.60
2017-11-30T20:09:08.185Z,19.73
2017-11-30T20:11:35.695Z,19.37
2017-11-30T20:14:03.219Z,17.17
2017-11-30T20:16:30.805Z,17.73
2017-11-30T20:18:58.350Z,17.63
2017-11-30T20:21:25.928Z,17.30
2017-11-30T20:23:53.589Z,17.90
2017-11-30T20:26:21.119Z,17.73
2017-11-30T20:28:48.655Z,17.10
2017-11-30T20:31:16.201Z,17.77
2017-11-30T20:33:43.707Z,18.90
2017-11-30T20:36:11.257Z,17.97
2017-11-30T20:38:38.767Z,16.40
2017-11-30T20:41:06.460Z,19.17
2017-11-30T20:43:33.997Z,19.23
2017-11-30T20:46:01.521Z,20.10
2017-11-30T20:48:29.071Z,19.57
2017-11-30T20:50:56.735Z,20.07
2017-11-30T20:53:24.246Z,20.20
2017-11-30T20:55:51.775Z,28.90
2017-11-30T20:58:19.335Z,23.10
2017-11-30T21:00:46.955Z,19.50
2017-11-30T21:03:14.524Z,24.70
2017-11-30T21:05:42.045Z,22.77
2017-11-30T21:08:09.568Z,22.87
2017-11-30T21:10:37.252Z,23.37
2017-11-30T21:13:04.780Z,23.60
2017-11-30T21:15:32.311Z,26.53
2017-11-30T21:17:59.899Z,25.80
2017-11-30T21:20:27.427Z,25.40
2017-11-30T21:22:54.953Z,25.90
2017-11-30T21:25:22.644Z,26.93
2017-11-30T21:27:50.165Z,25.87
2017-11-30T21:30:17.684Z,27.90
2017-11-30T21:32:45.233Z,26.20
2017-11-30T21:35:12.826Z,27.40
2017-11-30T21:37:40.374Z,37.13
2017-11-30T21:40:07.893Z,29.47
2017-11-30T21:42:35.457Z,27.53
2017-11-30T21:45:03.041Z,24.70
2017-11-30T21:47:30.565Z,26.33
2017-11-30T21:49:58.097Z,26.47
2017-11-30T21:52:25.682Z,25.50
2017-11-30T21:54:53.224Z,25.20
2017-11-30T21:57:20.739Z,32.30
2017-11-30T21:59:48.411Z,40.97
2017-11-30T22:02:15.956Z,43.13
2017-11-30T22:04:43.488Z,64.67
2017-11-30T22:07:11.149Z,71.97
2017-11-30T22:09:38.676Z,93.37
2017-11-30T22:12:06.221Z,66.00
2017-11-30T22:14:33.790Z,76.03
2017-11-30T22:17:01.394Z,61.40
2017-11-30T22:19:28.929Z,43.73
2017-11-30T22:21:56.514Z,46.07
2017-11-30T22:24:24.073Z,48.23
2017-11-30T22:26:51.616Z,53.43
2017-11-30T22:29:19.193Z,50.57
2017-11-30T22:31:46.734Z,48.33
2017-11-30T22:34:14.280Z,35.23
2017-11-30T22:36:41.890Z,44.87
2017-11-30T22:39:09.441Z,43.47
2017-11-30T22:41:36.968Z,41.27
2017-11-30T22:44:04.529Z,41.67
2017-11-30T22:46:32.068Z,40.03
2017-11-30T22:48:59.749Z,39.10
2017-11-30T22:51:27.293Z,38.10
2017-11-30T22:53:54.835Z,45.13
2017-11-30T22:56:22.505Z,38.00
2017-11-30T22:58:50.046Z,35.17
2017-11-30T23:01:17.621Z,35.60
2017-11-30T23:03:45.216Z,34.73
2017-11-30T23:06:12.752Z,33.87
2017-11-30T23:08:40.276Z,33.50
2017-11-30T23:11:07.946Z,38.17
2017-11-30T23:13:35.476Z,37.30
2017-11-30T23:16:02.997Z,36.43
2017-11-30T23:18:30.597Z,36.50
2017-11-30T23:20:58.138Z,38.20
2017-11-30T23:23:25.688Z,37.33
2017-11-30T23:25:53.276Z,39.10
2017-11-30T23:28:20.838Z,36.90
2017-11-30T23:30:48.450Z,38.33
2017-11-30T23:33:16.004Z,39.10
2017-11-30T23:35:43.604Z,37.90
2017-11-30T23:38:11.171Z,35.47
2017-11-30T23:40:38.704Z,33.70
2017-11-30T23:43:06.368Z,34.50
2017-11-30T23:45:33.900Z,37.37
2017-11-30T23:48:01.432Z,35.67
2017-11-30T23:50:29.101Z,31.70
2017-11-30T23:52:56.663Z,30.40
2017-11-30T23:55:24.197Z,27.50
2017-11-30T23:57:51.748Z,32.60
